Terminal Aerodrome Forecast
Issued by NWS Charleston, WV

Current Version | Previous Version | Text Only | Print | Product List | Glossary Off
Versions: 1 2 3 4 5 6 7 8 9 10 11 12 13 14 15 16 17 18 19 20 21 22 23 24

000
FTUS41 KRLX 271551 AAC
TAFEKN
TAF AMD
KEKN 271551Z 2716/2812 00000KT 6SM BR VCTS BKN040CB
     FM280000 00000KT P6SM BKN040
     FM281100 00000KT P6SM FEW035=

USA.gov is the U.S. government's official web portal to all federal, state and local government web resources and services.